createdAt,value
2019-04-28T00:00:08.844Z,29.5
2019-04-28T00:01:12.942Z,29.5
2019-04-28T00:02:15.075Z,29.5
2019-04-28T00:03:17.218Z,29.5
2019-04-28T00:04:21.498Z,29.5
2019-04-28T00:05:23.692Z,29.7
2019-04-28T00:06:26.113Z,29.7
2019-04-28T00:07:28.550Z,29.4
2019-04-28T00:08:31.805Z,29.6
2019-04-28T00:09:34.340Z,29.7
2019-04-28T00:10:36.488Z,29.4
2019-04-28T00:11:38.641Z,29.4
2019-04-28T00:12:43.207Z,29.4
2019-04-28T00:13:44.796Z,29.5
2019-04-28T00:14:46.948Z,29.7
2019-04-28T00:15:49.089Z,29.7
2019-04-28T00:16:53.249Z,29.5
2019-04-28T00:17:55.116Z,29.7
2019-04-28T00:18:57.265Z,29.6
2019-04-28T00:20:01.554Z,29.5
2019-04-28T00:21:03.972Z,29.6
2019-04-28T00:22:06.131Z,29.6
2019-04-28T00:23:08.556Z,29.6
2019-04-28T00:24:12.635Z,29.6
2019-04-28T00:25:15.061Z,29.6
2019-04-28T00:26:17.212Z,29.7
2019-04-28T00:27:19.364Z,29.5
2019-04-28T00:28:23.534Z,29.8
2019-04-28T00:29:37.505Z,29.5
2019-04-28T00:30:31.676Z,29.8
2019-04-28T00:31:33.626Z,29.7
2019-04-28T00:32:35.798Z,29.7
2019-04-28T00:33:38.215Z,29.5
2019-04-28T00:34:44.331Z,29.7
2019-04-28T00:35:46.470Z,29.6
2019-04-28T00:36:48.902Z,29.8
2019-04-28T00:37:52.817Z,29.6
2019-04-28T00:38:54.964Z,29.6
2019-04-28T00:39:57.385Z,29.7
2019-04-28T00:41:02.372Z,29.4
2019-04-28T00:42:04.884Z,29.7
2019-04-28T00:43:07.033Z,29.7
2019-04-28T00:44:08.624Z,29.6
2019-04-28T00:45:13.058Z,29.6
2019-04-28T00:46:15.225Z,29.5
2019-04-28T00:47:17.112Z,29.8
2019-04-28T00:48:20.761Z,29.9
2019-04-28T00:49:23.378Z,29.7
2019-04-28T00:50:25.524Z,29.6
2019-04-28T00:51:27.394Z,29.6
2019-04-28T00:52:32.102Z,29.5
2019-04-28T00:53:34.591Z,29.5
2019-04-28T00:54:37.016Z,29.6
2019-04-28T00:55:39.183Z,29.7
2019-04-28T00:56:43.574Z,29.7
2019-04-28T00:57:45.719Z,29.5
2019-04-28T00:58:48.149Z,29.7
2019-04-28T00:59:58.380Z,29.6
2019-04-28T01:01:01.207Z,29.7
2019-04-28T01:02:03.540Z,29.5
2019-04-28T01:03:05.158Z,29.7
2019-04-28T01:04:07.312Z,29.7
2019-04-28T01:05:11.152Z,30
2019-04-28T01:06:14.035Z,29.9
2019-04-28T01:07:16.583Z,29.9
2019-04-28T01:08:20.499Z,29.5
2019-04-28T01:09:23.048Z,29.7
2019-04-28T01:10:25.514Z,29.7
2019-04-28T01:11:27.389Z,29.9
2019-04-28T01:12:31.033Z,29.7
2019-04-28T01:13:33.322Z,29.6
2019-04-28T01:14:35.748Z,29.9
2019-04-28T01:15:39.577Z,29.8
2019-04-28T01:16:42.034Z,29.6
2019-04-28T01:17:44.468Z,29.8
2019-04-28T01:18:46.630Z,29.8
2019-04-28T01:19:51.394Z,29.8
2019-04-28T01:20:53.597Z,29.7
2019-04-28T01:21:55.750Z,29.8
2019-04-28T01:22:57.894Z,29.5
2019-04-28T01:24:01.846Z,29.7
2019-04-28T01:25:04.266Z,29.9
2019-04-28T01:26:06.414Z,29.7
2019-04-28T01:27:10.432Z,29.8
2019-04-28T01:28:12.862Z,29.7
2019-04-28T01:29:14.724Z,29.7
2019-04-28T01:30:17.152Z,29.8
2019-04-28T01:31:21.739Z,29.8
2019-04-28T01:32:24.164Z,29.8
2019-04-28T01:33:26.313Z,29.6
2019-04-28T01:34:30.499Z,30
2019-04-28T01:35:32.913Z,29.5
2019-04-28T01:36:34.803Z,29.7
2019-04-28T01:37:37.228Z,29.8
2019-04-28T01:38:41.680Z,29.7
2019-04-28T01:39:43.536Z,29.8
2019-04-28T01:40:45.954Z,29.9
2019-04-28T01:41:50.432Z,29.5
2019-04-28T01:42:52.848Z,29.8
2019-04-28T01:43:54.424Z,29.6
2019-04-28T01:44:56.594Z,29.6
2019-04-28T01:46:00.156Z,29.7
2019-04-28T01:47:02.350Z,29.6
2019-04-28T01:48:04.254Z,29.9
2019-04-28T01:49:06.681Z,29.5
2019-04-28T01:50:11.093Z,29.7
2019-04-28T01:51:13.516Z,29.7
2019-04-28T01:52:15.376Z,29.5
2019-04-28T01:53:17.265Z,29.8
2019-04-28T01:54:21.843Z,29.8
2019-04-28T01:55:23.986Z,29.7
2019-04-28T01:56:26.142Z,29.8
2019-04-28T01:57:29.869Z,29.7
2019-04-28T01:58:31.857Z,29.7
2019-04-28T01:59:34.010Z,29.8
2019-04-28T02:00:35.885Z,29.8
2019-04-28T02:01:39.810Z,29.8
2019-04-28T02:02:42.374Z,29.7
2019-04-28T02:03:44.252Z,29.7
2019-04-28T02:04:46.402Z,29.6
2019-04-28T02:05:50.407Z,29.8
2019-04-28T02:06:52.560Z,29.7
2019-04-28T02:07:54.976Z,29.7
2019-04-28T02:08:57.120Z,29.6
2019-04-28T02:10:01.470Z,29.8
2019-04-28T02:11:03.922Z,30
2019-04-28T02:12:06.084Z,29.9
2019-04-28T02:13:09.519Z,29.7
2019-04-28T02:14:12.854Z,29.7
2019-04-28T02:15:15.014Z,29.7
2019-04-28T02:16:19.279Z,29.9
2019-04-28T02:17:21.868Z,29.8
2019-04-28T02:18:23.464Z,29.8
2019-04-28T02:19:25.625Z,30
2019-04-28T02:20:29.933Z,29.8
2019-04-28T02:21:32.564Z,29.8
2019-04-28T02:22:35.024Z,29.8
2019-04-28T02:23:37.176Z,29.9
2019-04-28T02:24:41.622Z,29.7
2019-04-28T02:25:44.056Z,29.9
2019-04-28T02:26:46.242Z,29.8
2019-04-28T02:27:50.187Z,29.7
2019-04-28T02:28:52.622Z,29.7
2019-04-28T02:29:54.487Z,29.6
2019-04-28T02:30:56.913Z,29.6
2019-04-28T02:32:03.851Z,29.7
2019-04-28T02:33:06.005Z,29.6
2019-04-28T02:34:11.155Z,29.7
2019-04-28T02:35:13.410Z,29.9
2019-04-28T02:36:15.856Z,29.8
2019-04-28T02:37:20.219Z,29.7
2019-04-28T02:38:22.992Z,29.9
2019-04-28T02:39:25.423Z,29.8
2019-04-28T02:40:30.217Z,29.7
2019-04-28T02:41:33.811Z,29.7
2019-04-28T02:42:35.808Z,29.9
2019-04-28T02:43:42.705Z,29.9
2019-04-28T02:44:44.862Z,29.5
2019-04-28T02:45:47.016Z,29.7
2019-04-28T02:46:52.880Z,29.7
2019-04-28T02:47:55.314Z,29.4
2019-04-28T02:49:00.781Z,29.5
2019-04-28T02:50:02.757Z,29.6
2019-04-28T02:51:05.177Z,29.7
2019-04-28T02:52:07.333Z,29.8
2019-04-28T02:53:12.800Z,29.7
2019-04-28T02:54:15.237Z,29.5
2019-04-28T02:55:17.666Z,29.4
2019-04-28T02:56:23.608Z,29.6
2019-04-28T02:57:25.735Z,29.7
2019-04-28T02:58:27.884Z,29.7
2019-04-28T02:59:33.344Z,29.5
2019-04-28T03:00:35.766Z,29.8
2019-04-28T03:01:40.658Z,29.7
2019-04-28T03:02:42.915Z,29.5
2019-04-28T03:03:45.355Z,29.5
2019-04-28T03:04:50.495Z,29.6
2019-04-28T03:05:52.770Z,29.8
2019-04-28T03:06:55.189Z,29.6
2019-04-28T03:07:57.615Z,29.4
2019-04-28T03:09:03.560Z,29.5
2019-04-28T03:10:05.719Z,29.4
2019-04-28T03:11:10.437Z,29.7
2019-04-28T03:12:13.115Z,29.7
2019-04-28T03:13:14.723Z,29.3
2019-04-28T03:14:16.890Z,29.9
2019-04-28T03:15:22.825Z,29.5
2019-04-28T03:16:24.985Z,29.4
2019-04-28T03:17:27.131Z,29.3
2019-04-28T03:18:33.075Z,29.3
2019-04-28T03:19:35.504Z,29.3
2019-04-28T03:20:37.655Z,29.2
2019-04-28T03:21:43.814Z,29.3
2019-04-28T03:22:46.246Z,29.5
2019-04-28T03:23:52.663Z,29.3
2019-04-28T03:24:55.094Z,29.6
2019-04-28T03:25:57.244Z,29.4
2019-04-28T03:27:03.772Z,29.3
2019-04-28T03:28:05.939Z,29.3
2019-04-28T03:29:10.644Z,29.2
2019-04-28T03:30:13.451Z,29.3
2019-04-28T03:31:42.251Z,29.4
2019-04-28T03:32:36.505Z,29.3
2019-04-28T03:33:26.571Z,29.3
2019-04-28T03:34:36.440Z,29.4
2019-04-28T03:35:43.317Z,29.3
2019-04-28T03:36:43.810Z,29.2
2019-04-28T03:37:45.692Z,29.3
2019-04-28T03:38:50.363Z,29.3
2019-04-28T03:39:53.114Z,29.3
2019-04-28T03:40:55.543Z,29.3
2019-04-28T03:41:59.933Z,29.2
2019-04-28T03:43:03.229Z,29.2
2019-04-28T03:44:05.470Z,29.1
2019-04-28T03:45:07.083Z,29.5
2019-04-28T03:46:13.014Z,29.2
2019-04-28T03:47:14.902Z,29.3
2019-04-28T03:48:17.324Z,29.3
2019-04-28T03:49:23.272Z,29.2
2019-04-28T03:50:25.433Z,29.3
2019-04-28T03:51:27.567Z,29
2019-04-28T03:52:33.025Z,29.3
2019-04-28T03:53:35.183Z,29.4
2019-04-28T03:54:37.339Z,29.3
2019-04-28T03:55:42.802Z,29.4
2019-04-28T03:56:45.226Z,29.2
2019-04-28T03:57:47.380Z,29.2
2019-04-28T03:58:53.315Z,29.1
2019-04-28T03:59:55.481Z,29
2019-04-28T04:00:57.362Z,29.2
2019-04-28T04:02:03.449Z,29.5
2019-04-28T04:03:05.968Z,29
2019-04-28T04:04:07.865Z,29.3
2019-04-28T04:05:13.538Z,29.1
2019-04-28T04:06:15.981Z,29.2
2019-04-28T04:07:21.145Z,29.3
2019-04-28T04:08:23.395Z,29.4
2019-04-28T04:09:25.833Z,29
2019-04-28T04:10:30.471Z,29.2
2019-04-28T04:11:33.232Z,29.4
2019-04-28T04:12:35.127Z,29.2
2019-04-28T04:13:37.586Z,29.3
2019-04-28T04:14:43.525Z,29.1
2019-04-28T04:15:49.382Z,29.2
2019-04-28T04:16:50.655Z,29.2
2019-04-28T04:17:53.080Z,29.2
2019-04-28T04:18:55.510Z,29.1
2019-04-28T04:19:57.938Z,29.2
2019-04-28T04:21:03.403Z,29
2019-04-28T04:22:05.552Z,29.3
2019-04-28T04:23:07.430Z,29.2
2019-04-28T04:24:12.879Z,29.5
2019-04-28T04:25:15.011Z,29.3
2019-04-28T04:26:17.442Z,29.2
2019-04-28T04:27:23.384Z,29.1
2019-04-28T04:28:25.540Z,29.2
2019-04-28T04:29:27.692Z,29
2019-04-28T04:30:32.397Z,29
2019-04-28T04:31:34.256Z,29
2019-04-28T04:32:36.684Z,29.1
2019-04-28T04:33:42.844Z,29.1
2019-04-28T04:34:44.993Z,29.2
2019-04-28T04:35:47.416Z,29.1
2019-04-28T04:36:53.348Z,29.1
2019-04-28T04:37:55.244Z,29
2019-04-28T04:38:57.401Z,29.3
2019-04-28T04:40:03.344Z,29.1
2019-04-28T04:41:05.482Z,29
2019-04-28T04:42:10.267Z,29.2
2019-04-28T04:43:12.632Z,28.8
2019-04-28T04:44:14.793Z,29.1
2019-04-28T04:45:16.939Z,29.2
2019-04-28T04:46:23.019Z,29.1
2019-04-28T04:47:25.219Z,29.1
2019-04-28T04:48:27.655Z,29
2019-04-28T04:49:33.590Z,28.9
2019-04-28T04:50:36.011Z,29
2019-04-28T04:51:40.692Z,29
2019-04-28T04:52:43.137Z,29
2019-04-28T04:53:45.019Z,28.9
2019-04-28T04:54:47.177Z,29.1
2019-04-28T04:55:53.807Z,29.1
2019-04-28T04:56:56.232Z,29.2
2019-04-28T04:58:00.924Z,29
2019-04-28T04:59:03.406Z,29.1
2019-04-28T05:00:05.827Z,29
2019-04-28T05:01:12.717Z,29.1
2019-04-28T05:02:26.312Z,29.1
2019-04-28T05:03:21.087Z,29
2019-04-28T05:04:23.773Z,28.9
2019-04-28T05:05:25.939Z,29.1
2019-04-28T05:06:29.779Z,29
2019-04-28T05:07:32.007Z,28.9
2019-04-28T05:08:34.428Z,29
2019-04-28T05:09:36.586Z,28.9
2019-04-28T05:10:40.639Z,29.1
2019-04-28T05:11:43.069Z,28.7
2019-04-28T05:12:45.493Z,29.1
2019-04-28T05:13:47.345Z,28.9
2019-04-28T05:14:51.423Z,28.8
2019-04-28T05:15:53.304Z,28.8
2019-04-28T05:16:55.726Z,28.8
2019-04-28T05:17:59.994Z,28.8
2019-04-28T05:19:02.593Z,28.9
2019-04-28T05:20:05.005Z,28.9
2019-04-28T05:21:06.867Z,28.9
2019-04-28T05:22:10.143Z,28.8
2019-04-28T05:23:12.385Z,29
2019-04-28T05:24:16.010Z,28.7
2019-04-28T05:25:20.368Z,28.9
2019-04-28T05:26:25.915Z,28.8
2019-04-28T05:27:28.060Z,29
2019-04-28T05:28:36.772Z,28.8
2019-04-28T05:29:39.749Z,28.7
2019-04-28T05:30:43.063Z,29.1
2019-04-28T05:31:45.589Z,28.8
2019-04-28T05:32:53.510Z,28.9
2019-04-28T05:33:52.465Z,28.9
2019-04-28T05:34:54.889Z,28.6
2019-04-28T05:35:59.123Z,29
2019-04-28T05:37:02.291Z,29.1
2019-04-28T05:38:04.445Z,28.8
2019-04-28T05:39:06.863Z,28.8
2019-04-28T05:40:10.694Z,28.8
2019-04-28T05:41:12.827Z,28.9
2019-04-28T05:42:15.245Z,28.9
2019-04-28T05:43:19.534Z,29
2019-04-28T05:44:23.385Z,28.8
2019-04-28T05:45:25.808Z,28.9
2019-04-28T05:46:29.961Z,29.1
2019-04-28T05:47:32.463Z,28.9
2019-04-28T05:48:34.902Z,28.7
2019-04-28T05:49:37.115Z,29
2019-04-28T05:50:41.672Z,28.7
2019-04-28T05:51:43.839Z,28.9
2019-04-28T05:52:46.005Z,28.9
2019-04-28T05:53:50.285Z,28.9
2019-04-28T05:54:53.448Z,28.8
2019-04-28T05:55:55.899Z,28.7
2019-04-28T05:56:59.683Z,28.8
2019-04-28T05:58:04.454Z,29
2019-04-28T05:59:06.602Z,28.8
2019-04-28T06:00:10.911Z,28.8
2019-04-28T06:01:12.812Z,28.9
2019-04-28T06:02:15.001Z,29
2019-04-28T06:03:17.401Z,28.8
2019-04-28T06:04:21.883Z,28.9
2019-04-28T06:05:24.047Z,28.8
2019-04-28T06:06:26.391Z,28.9
2019-04-28T06:07:31.994Z,28.9
2019-04-28T06:08:36.083Z,28.8
2019-04-28T06:09:39.837Z,28.9
2019-04-28T06:10:41.589Z,28.8
2019-04-28T06:11:44.024Z,28.8
2019-04-28T06:12:46.175Z,29
2019-04-28T06:13:50.440Z,29
2019-04-28T06:14:55.013Z,28.8
2019-04-28T06:15:57.484Z,28.9
2019-04-28T06:17:04.020Z,28.7
2019-04-28T06:18:06.815Z,28.8
2019-04-28T06:19:10.955Z,28.8
2019-04-28T06:20:13.392Z,29
2019-04-28T06:21:15.535Z,29
2019-04-28T06:22:17.928Z,28.9
2019-04-28T06:23:20.149Z,28.7
2019-04-28T06:24:22.577Z,28.9
2019-04-28T06:25:24.997Z,28.8
2019-04-28T06:26:27.415Z,28.8
2019-04-28T06:27:32.438Z,29
2019-04-28T06:28:34.549Z,28.8
2019-04-28T06:29:36.453Z,28.9
2019-04-28T06:30:38.603Z,28.9
2019-04-28T06:31:40.506Z,28.7
2019-04-28T06:32:42.931Z,28.8
2019-04-28T06:33:45.415Z,28.7
2019-04-28T06:34:47.847Z,28.8
2019-04-28T06:35:49.742Z,28.8
2019-04-28T06:36:51.913Z,28.9
2019-04-28T06:37:54.059Z,28.8
2019-04-28T06:38:56.504Z,29
2019-04-28T06:39:58.393Z,28.7
2019-04-28T06:41:00.534Z,28.8
2019-04-28T06:42:02.703Z,28.6
2019-04-28T06:43:04.595Z,28.7
2019-04-28T06:44:06.742Z,29
2019-04-28T06:45:08.896Z,28.6
2019-04-28T06:46:10.771Z,28.7
2019-04-28T06:47:13.185Z,28.7
2019-04-28T06:48:18.853Z,28.8
2019-04-28T06:49:21.012Z,28.9
2019-04-28T06:50:23.431Z,28.6
2019-04-28T06:51:25.557Z,28.9
2019-04-28T06:52:27.996Z,28.9
2019-04-28T06:53:30.423Z,28.7
2019-04-28T06:54:32.573Z,28.9
2019-04-28T06:55:34.717Z,28.8
2019-04-28T06:56:37.137Z,28.7
2019-04-28T06:57:39.273Z,29.1
2019-04-28T06:58:41.433Z,28.7
2019-04-28T06:59:43.563Z,28.7
2019-04-28T07:00:45.159Z,28.7
2019-04-28T07:01:46.778Z,28.9
2019-04-28T07:02:49.245Z,28.5
2019-04-28T07:03:51.391Z,28.7
2019-04-28T07:05:01.520Z,28.7
2019-04-28T07:05:58.820Z,28.7
2019-04-28T07:07:00.721Z,28.7
2019-04-28T07:08:02.854Z,28.8
2019-04-28T07:09:05.287Z,28.7
2019-04-28T07:10:07.850Z,28.6
2019-04-28T07:11:10.008Z,28.7
2019-04-28T07:12:12.425Z,28.7
2019-04-28T07:13:14.863Z,28.7
2019-04-28T07:14:17.289Z,28.7
2019-04-28T07:15:19.424Z,28.6
2019-04-28T07:16:21.587Z,28.7
2019-04-28T07:17:24.034Z,28.6
2019-04-28T07:18:26.464Z,28.7
2019-04-28T07:19:28.358Z,28.6
2019-04-28T07:20:30.815Z,28.6
2019-04-28T07:21:33.251Z,28.5
2019-04-28T07:22:35.412Z,28.7
2019-04-28T07:23:37.347Z,28.7
2019-04-28T07:24:39.579Z,28.7
2019-04-28T07:25:41.732Z,28.7
2019-04-28T07:26:44.161Z,28.7
2019-04-28T07:27:46.583Z,28.8
2019-04-28T07:28:48.469Z,28.8
2019-04-28T07:29:50.903Z,28.7
2019-04-28T07:30:52.781Z,28.8
2019-04-28T07:31:55.215Z,28.7
2019-04-28T07:32:57.633Z,28.7
2019-04-28T07:34:02.859Z,28.8
2019-04-28T07:35:05.147Z,28.6
2019-04-28T07:36:07.572Z,29
2019-04-28T07:37:09.723Z,28.7
2019-04-28T07:38:12.151Z,28.6
2019-04-28T07:39:14.626Z,28.7
2019-04-28T07:40:17.055Z,28.6
2019-04-28T07:41:19.482Z,28.8
2019-04-28T07:42:21.913Z,28.8
2019-04-28T07:43:24.359Z,28.9
2019-04-28T07:44:26.787Z,28.7
2019-04-28T07:45:29.253Z,28.8
2019-04-28T07:46:31.689Z,28.8
2019-04-28T07:47:33.546Z,28.8
2019-04-28T07:48:35.973Z,28.9
2019-04-28T07:49:38.144Z,28.8
2019-04-28T07:50:40.595Z,28.8
2019-04-28T07:51:42.752Z,28.8
2019-04-28T07:52:45.182Z,28.7
2019-04-28T07:53:47.341Z,28.7
2019-04-28T07:54:49.793Z,28.9
2019-04-28T07:55:51.933Z,29
2019-04-28T07:56:54.141Z,28.8
2019-04-28T07:57:56.305Z,28.7
2019-04-28T07:58:58.493Z,28.8
2019-04-28T08:00:00.924Z,28.8
2019-04-28T08:01:03.361Z,28.6
2019-04-28T08:02:05.527Z,28.8
2019-04-28T08:03:07.959Z,28.5
2019-04-28T08:04:10.118Z,28.5
2019-04-28T08:05:12.538Z,28.8
2019-04-28T08:06:14.977Z,28.6
2019-04-28T08:07:17.402Z,28.9
2019-04-28T08:08:19.829Z,28.9
2019-04-28T08:09:22.243Z,28.5
2019-04-28T08:10:24.668Z,28.8
2019-04-28T08:11:27.096Z,28.7
2019-04-28T08:12:29.246Z,28.7
2019-04-28T08:13:31.689Z,28.9
2019-04-28T08:14:33.829Z,28.8
2019-04-28T08:15:36.062Z,28.6
2019-04-28T08:16:38.219Z,28.9
2019-04-28T08:17:40.385Z,28.8
2019-04-28T08:18:42.527Z,28.9
2019-04-28T08:19:44.963Z,28.8
2019-04-28T08:20:47.403Z,28.6
2019-04-28T08:21:49.293Z,28.7
2019-04-28T08:22:51.719Z,28.8
2019-04-28T08:23:54.141Z,28.8
2019-04-28T08:24:56.296Z,28.7
2019-04-28T08:25:58.735Z,28.8
2019-04-28T08:27:01.164Z,28.5
2019-04-28T08:28:03.338Z,28.8
2019-04-28T08:29:05.765Z,28.6
2019-04-28T08:30:08.197Z,28.6
2019-04-28T08:31:10.355Z,28.5
2019-04-28T08:32:12.781Z,28.7
2019-04-28T08:33:15.203Z,28.6
2019-04-28T08:34:17.623Z,28.6
2019-04-28T08:35:20.051Z,28.6
2019-04-28T08:36:22.204Z,28.8
2019-04-28T08:37:24.376Z,28.7
2019-04-28T08:38:26.523Z,28.7
2019-04-28T08:39:28.954Z,28.7
2019-04-28T08:40:31.376Z,28.5
2019-04-28T08:41:33.807Z,28.6
2019-04-28T08:42:36.003Z,28.7
2019-04-28T08:43:38.164Z,28.7
2019-04-28T08:44:40.030Z,28.7
2019-04-28T08:45:42.463Z,28.6
2019-04-28T08:46:44.883Z,28.8
2019-04-28T08:47:47.326Z,28.7
2019-04-28T08:48:49.807Z,28.4
2019-04-28T08:49:52.239Z,28.6
2019-04-28T08:50:54.402Z,28.6
2019-04-28T08:51:56.874Z,28.6
2019-04-28T08:52:58.793Z,28.7
2019-04-28T08:54:01.235Z,28.6
2019-04-28T08:55:03.128Z,28.8
2019-04-28T08:56:05.553Z,28.7
2019-04-28T08:57:07.747Z,28.6
2019-04-28T08:58:10.295Z,28.7
2019-04-28T08:59:12.715Z,28.6
2019-04-28T09:00:14.879Z,28.6
2019-04-28T09:01:17.311Z,28.6
2019-04-28T09:02:19.461Z,28.5
2019-04-28T09:03:21.620Z,28.6
2019-04-28T09:04:24.043Z,28.7
2019-04-28T09:05:26.188Z,28.8
2019-04-28T09:06:28.376Z,28.6
2019-04-28T09:07:30.543Z,28.7
2019-04-28T09:08:32.972Z,28.7
2019-04-28T09:09:35.504Z,28.6
2019-04-28T09:10:37.822Z,28.6
2019-04-28T09:11:40.313Z,28.7
2019-04-28T09:12:42.782Z,28.7
2019-04-28T09:13:44.724Z,28.5
2019-04-28T09:14:46.898Z,28.4
2019-04-28T09:15:49.056Z,28.6
2019-04-28T09:16:51.508Z,28.5
2019-04-28T09:17:53.645Z,28.4
2019-04-28T09:18:56.066Z,28.6
2019-04-28T09:19:58.513Z,28.6
2019-04-28T09:21:00.935Z,28.6
2019-04-28T09:22:03.375Z,28.6
2019-04-28T09:23:05.580Z,28.5
2019-04-28T09:24:07.699Z,28.6
2019-04-28T09:25:09.284Z,28.6
2019-04-28T09:26:11.436Z,28.7
2019-04-28T09:27:13.865Z,28.6
2019-04-28T09:28:16.282Z,28.7
2019-04-28T09:29:18.712Z,28.6
2019-04-28T09:30:20.871Z,28.6
2019-04-28T09:31:23.301Z,28.5
2019-04-28T09:32:25.453Z,28.7
2019-04-28T09:33:27.872Z,28.6
2019-04-28T09:34:30.301Z,28.6
2019-04-28T09:35:32.446Z,28.7
2019-04-28T09:36:34.333Z,28.6
2019-04-28T09:37:36.207Z,28.5
2019-04-28T09:38:38.624Z,28.6
2019-04-28T09:39:40.815Z,28.6
2019-04-28T09:40:42.980Z,28.7
2019-04-28T09:41:45.130Z,28.7
2019-04-28T09:42:47.565Z,28.5
2019-04-28T09:43:49.754Z,28.7
2019-04-28T09:44:51.620Z,28.8
2019-04-28T09:45:54.055Z,28.7
2019-04-28T09:46:56.492Z,28.5
2019-04-28T09:47:58.923Z,28.5
2019-04-28T09:49:01.343Z,28.5
2019-04-28T09:50:03.505Z,28.5
2019-04-28T09:51:05.654Z,28.6
2019-04-28T09:52:08.100Z,28.6
2019-04-28T09:53:09.979Z,28.4
2019-04-28T09:54:12.126Z,28.4
2019-04-28T09:55:14.565Z,28.6
2019-04-28T09:56:16.732Z,28.6
2019-04-28T09:57:19.164Z,28.5
2019-04-28T09:58:21.592Z,28.6
2019-04-28T09:59:23.761Z,28.6
2019-04-28T10:00:25.655Z,28.6
2019-04-28T10:01:27.510Z,28.5
2019-04-28T10:02:29.701Z,28.5
2019-04-28T10:03:31.852Z,28.6
2019-04-28T10:04:41.255Z,28.4
2019-04-28T10:05:39.267Z,28.5
2019-04-28T10:06:41.423Z,28.6
2019-04-28T10:07:43.854Z,28.6
2019-04-28T10:08:46.019Z,28.5
2019-04-28T10:09:48.458Z,28.6
2019-04-28T10:10:50.883Z,28.5
2019-04-28T10:11:52.466Z,28.4
2019-04-28T10:12:54.357Z,28.5
2019-04-28T10:13:57.055Z,28.5
2019-04-28T10:14:59.528Z,28.7
2019-04-28T10:16:01.692Z,28.5
2019-04-28T10:17:04.127Z,28.5
2019-04-28T10:18:06.294Z,28.4
2019-04-28T10:19:08.464Z,28.5
2019-04-28T10:20:10.884Z,28.5
2019-04-28T10:21:12.762Z,28.5
2019-04-28T10:22:15.191Z,28.5
2019-04-28T10:23:17.325Z,28.4
2019-04-28T10:24:19.538Z,28.4
2019-04-28T10:25:21.963Z,28.6
2019-04-28T10:26:24.113Z,28.5
2019-04-28T10:27:26.282Z,28.7
2019-04-28T10:28:28.716Z,28.4
2019-04-28T10:29:32.943Z,28.6
2019-04-28T10:30:35.231Z,28.8
2019-04-28T10:31:37.654Z,28.4
2019-04-28T10:32:38.963Z,28.5
2019-04-28T10:33:41.116Z,28.6
2019-04-28T10:34:54.237Z,28.4
2019-04-28T10:35:48.252Z,28.7
2019-04-28T10:36:50.449Z,28.6
2019-04-28T10:37:52.028Z,28.6
2019-04-28T10:38:54.461Z,28.4
2019-04-28T10:39:56.884Z,28.7
2019-04-28T10:40:59.048Z,28.4
2019-04-28T10:42:01.204Z,28.5
2019-04-28T10:43:03.634Z,28.6
2019-04-28T10:44:08.348Z,28.4
2019-04-28T10:45:10.775Z,28.3
2019-04-28T10:46:13.200Z,28.3
2019-04-28T10:47:15.641Z,28.5
2019-04-28T10:48:17.806Z,28.4
2019-04-28T10:49:20.242Z,28.5
2019-04-28T10:50:22.671Z,28.6
2019-04-28T10:51:25.112Z,28.5
2019-04-28T10:52:26.965Z,28.5
2019-04-28T10:53:29.615Z,28.6
2019-04-28T10:54:32.043Z,28.6
2019-04-28T10:55:34.475Z,28.5
2019-04-28T10:56:36.893Z,28.4
2019-04-28T10:57:39.053Z,28.7
2019-04-28T10:58:40.977Z,28.6
2019-04-28T10:59:43.133Z,28.6
2019-04-28T11:00:45.556Z,28.7
2019-04-28T11:01:47.730Z,28.7
2019-04-28T11:02:49.622Z,28.4
2019-04-28T11:03:51.788Z,28.5
2019-04-28T11:04:53.965Z,28.7
2019-04-28T11:05:59.635Z,28.5
2019-04-28T11:07:02.052Z,28.6
2019-04-28T11:08:04.262Z,28.5
2019-04-28T11:09:06.702Z,28.6
2019-04-28T11:10:09.129Z,28.5
2019-04-28T11:11:11.550Z,28.6
2019-04-28T11:12:13.971Z,28.7
2019-04-28T11:13:16.412Z,28.6
2019-04-28T11:14:18.553Z,28.4
2019-04-28T11:15:20.719Z,28.6
2019-04-28T11:16:22.612Z,28.7
2019-04-28T11:17:25.040Z,28.4
2019-04-28T11:18:27.473Z,28.6
2019-04-28T11:19:29.620Z,28.4
2019-04-28T11:20:32.063Z,28.7
2019-04-28T11:21:34.202Z,28.7
2019-04-28T11:22:36.354Z,28.7
2019-04-28T11:23:38.515Z,28.6
2019-04-28T11:24:40.646Z,28.5
2019-04-28T11:25:43.092Z,28.6
2019-04-28T11:26:45.531Z,28.6
2019-04-28T11:27:47.144Z,28.6
2019-04-28T11:28:49.571Z,28.5
2019-04-28T11:29:51.776Z,28.6
2019-04-28T11:30:54.206Z,28.7
2019-04-28T11:31:56.352Z,28.6
2019-04-28T11:32:58.503Z,28.4
2019-04-28T11:34:00.961Z,28.7
2019-04-28T11:35:02.828Z,28.5
2019-04-28T11:36:05.242Z,28.5
2019-04-28T11:37:07.376Z,28.7
2019-04-28T11:38:09.810Z,28.6
2019-04-28T11:39:11.940Z,28.5
2019-04-28T11:40:14.364Z,28.6
2019-04-28T11:41:16.800Z,28.6
2019-04-28T11:42:19.239Z,28.6
2019-04-28T11:43:21.663Z,28.7
2019-04-28T11:44:24.104Z,28.8
2019-04-28T11:45:26.254Z,28.6
2019-04-28T11:46:28.414Z,28.5
2019-04-28T11:47:30.842Z,28.7
2019-04-28T11:48:32.733Z,28.4
2019-04-28T11:49:34.884Z,28.6
2019-04-28T11:50:37.328Z,28.4
2019-04-28T11:51:39.753Z,28.5
2019-04-28T11:52:41.918Z,28.6
2019-04-28T11:53:44.339Z,28.7
2019-04-28T11:54:46.795Z,28.7
2019-04-28T11:55:48.941Z,28.7
2019-04-28T11:56:51.383Z,28.5
2019-04-28T11:57:53.544Z,28.6
2019-04-28T11:58:55.430Z,28.6
2019-04-28T11:59:57.621Z,28.6
2019-04-28T12:01:00.058Z,28.5
2019-04-28T12:02:02.493Z,28.5
2019-04-28T12:03:04.412Z,28.6
2019-04-28T12:04:06.600Z,28.6
2019-04-28T12:05:08.188Z,28.6
2019-04-28T12:06:10.385Z,28.6
2019-04-28T12:07:12.536Z,28.7
2019-04-28T12:08:14.712Z,28.5
2019-04-28T12:09:17.137Z,28.4
2019-04-28T12:10:19.278Z,28.7
2019-04-28T12:11:21.700Z,28.6
2019-04-28T12:12:24.125Z,28.5
2019-04-28T12:13:26.284Z,28.7
2019-04-28T12:14:28.434Z,28.4
2019-04-28T12:15:30.594Z,28.4
2019-04-28T12:16:32.724Z,28.7
2019-04-28T12:17:35.267Z,28.7
2019-04-28T12:18:37.696Z,28.6
2019-04-28T12:19:40.133Z,28.8
2019-04-28T12:20:42.031Z,28.8
2019-04-28T12:21:44.181Z,28.6
2019-04-28T12:22:46.073Z,28.5
2019-04-28T12:23:48.229Z,28.7
2019-04-28T12:24:50.398Z,28.7
2019-04-28T12:25:52.827Z,28.7
2019-04-28T12:26:54.959Z,28.6
2019-04-28T12:27:57.516Z,28.6
2019-04-28T12:29:00.865Z,28.8
2019-04-28T12:30:03.409Z,28.8
2019-04-28T12:31:05.560Z,28.5
2019-04-28T12:32:07.714Z,28.7
2019-04-28T12:33:09.606Z,28.7
2019-04-28T12:34:11.770Z,28.8
2019-04-28T12:35:14.250Z,28.8
2019-04-28T12:36:20.682Z,28.7
2019-04-28T12:37:23.115Z,28.8
2019-04-28T12:38:25.814Z,28.7
2019-04-28T12:39:28.308Z,28.6
2019-04-28T12:40:30.763Z,28.8
2019-04-28T12:41:32.952Z,28.6
2019-04-28T12:42:35.481Z,28.7
2019-04-28T12:43:37.901Z,28.6
2019-04-28T12:44:40.060Z,28.6
2019-04-28T12:45:42.494Z,28.8
2019-04-28T12:46:44.920Z,28.5
2019-04-28T12:47:47.341Z,28.7
2019-04-28T12:48:49.771Z,28.6
2019-04-28T12:49:51.933Z,28.8
2019-04-28T12:50:54.366Z,28.6
2019-04-28T12:51:56.527Z,28.4
2019-04-28T12:52:58.970Z,28.8
2019-04-28T12:54:01.395Z,28.7
2019-04-28T12:55:03.841Z,28.5
2019-04-28T12:56:06.050Z,28.6
2019-04-28T12:57:08.492Z,28.7
2019-04-28T12:58:10.918Z,28.4
2019-04-28T12:59:12.818Z,28.4
2019-04-28T13:00:15.251Z,28.6
2019-04-28T13:01:17.411Z,28.8
2019-04-28T13:02:19.576Z,28.6
2019-04-28T13:03:21.704Z,28.5
2019-04-28T13:04:24.129Z,28.7
2019-04-28T13:05:26.560Z,28.5
2019-04-28T13:06:28.983Z,28.4
2019-04-28T13:07:30.847Z,28.6
2019-04-28T13:08:32.994Z,28.5
2019-04-28T13:09:35.164Z,28.6
2019-04-28T13:10:37.598Z,28.7
2019-04-28T13:11:39.744Z,28.6
2019-04-28T13:12:41.923Z,28.7
2019-04-28T13:13:46.676Z,28.6
2019-04-28T13:14:49.028Z,28.4
2019-04-28T13:15:51.209Z,28.5
2019-04-28T13:16:53.364Z,28.4
2019-04-28T13:17:55.818Z,28.6
2019-04-28T13:18:57.964Z,28.6
2019-04-28T13:19:59.551Z,28.6
2019-04-28T13:21:01.985Z,28.5
2019-04-28T13:22:05.570Z,28.7
2019-04-28T13:23:07.290Z,28.7
2019-04-28T13:24:09.203Z,28.5
2019-04-28T13:25:11.360Z,28.6
2019-04-28T13:26:13.236Z,28.7
2019-04-28T13:27:15.787Z,28.7
2019-04-28T13:28:18.263Z,28.4
2019-04-28T13:29:20.721Z,28.7
2019-04-28T13:30:23.190Z,28.4
2019-04-28T13:31:25.343Z,28.5
2019-04-28T13:32:27.782Z,28.6
2019-04-28T13:33:29.943Z,28.6
2019-04-28T13:34:31.819Z,28.5
2019-04-28T13:35:34.054Z,28.6
2019-04-28T13:36:36.010Z,28.8
2019-04-28T13:37:38.174Z,28.6
2019-04-28T13:38:40.728Z,28.4
2019-04-28T13:39:42.934Z,28.5
2019-04-28T13:40:45.433Z,28.5
2019-04-28T13:41:47.601Z,28.4
2019-04-28T13:42:49.729Z,28.5
2019-04-28T13:43:51.930Z,28.5
2019-04-28T13:44:54.159Z,28.5
2019-04-28T13:45:56.314Z,28.5
2019-04-28T13:46:58.465Z,28.4
2019-04-28T13:48:00.899Z,28.6
2019-04-28T13:49:03.147Z,28.5
2019-04-28T13:50:05.040Z,28.5
2019-04-28T13:51:07.208Z,28.7
2019-04-28T13:52:09.655Z,28.7
2019-04-28T13:53:12.068Z,28.5
2019-04-28T13:54:14.602Z,28.5
2019-04-28T13:55:16.770Z,28.4
2019-04-28T13:56:18.939Z,28.5
2019-04-28T13:57:21.393Z,28.7